Time;durP1;ratioP1;P1;durP2;ratioP2;P2;SDS_P1;SDS_P2;PMS_P1;PMS_P2;Temp;Humidity;BMP_temperature;BMP_pressure;BME280_temperature;BME280_humidity;BME280_pressure;Samples;Min_cycle;Max_cycle;Signal;HPM_P1;HPM_P2
2022/01/31 00:00:08;;;;;;;3.10;1.77;;;;;;;;;;2112458;28;20071;-61
2022/01/31 00:01:10;;;;;;;3.55;1.80;;;;;;;;;;2108984;28;20426;-61
2022/01/31 00:02:11;;;;;;;3.85;1.90;;;;;;;;;;2106834;28;20044;-47
2022/01/31 00:03:15;;;;;;;4.10;2.30;;;;;;;;;;2106588;28;20098;-48
2022/01/31 00:04:16;;;;;;;3.70;2.20;;;;;;;;;;2108707;28;20480;-49
2022/01/31 00:05:18;;;;;;;3.33;1.80;;;;;;;;;;2114992;28;20058;-48
2022/01/31 00:06:19;;;;;;;3.72;2.47;;;;;;;;;;2114005;28;20040;-48
2022/01/31 00:07:21;;;;;;;3.38;1.98;;;;;;;;;;2112679;28;20047;-62
2022/01/31 00:08:24;;;;;;;3.72;1.60;;;;;;;;;;2115099;28;20054;-49
2022/01/31 00:09:25;;;;;;;3.20;2.00;;;;;;;;;;2111742;28;20046;-49
2022/01/31 00:10:28;;;;;;;3.60;1.63;;;;;;;;;;2113964;28;20078;-62
2022/01/31 00:11:30;;;;;;;2.72;1.80;;;;;;;;;;2114909;28;20059;-63
2022/01/31 00:12:34;;;;;;;3.72;1.50;;;;;;;;;;2112796;28;20048;-63
2022/01/31 00:13:39;;;;;;;2.63;1.52;;;;;;;;;;2114799;28;20071;-63
2022/01/31 00:14:42;;;;;;;3.80;1.55;;;;;;;;;;2114469;28;20075;-50
2022/01/31 00:15:47;;;;;;;2.88;1.63;;;;;;;;;;2110241;28;20490;-63
2022/01/31 00:16:48;;;;;;;3.42;1.75;;;;;;;;;;2114695;28;20071;-64
2022/01/31 00:17:49;;;;;;;3.60;1.97;;;;;;;;;;2113733;28;20055;-64
2022/01/31 00:18:50;;;;;;;4.53;2.28;;;;;;;;;;2107272;28;20071;-64
2022/01/31 00:19:51;;;;;;;6.50;3.15;;;;;;;;;;2106301;28;20040;-64
2022/01/31 00:20:52;;;;;;;3.92;2.10;;;;;;;;;;2108089;28;20127;-64
2022/01/31 00:21:54;;;;;;;6.57;3.23;;;;;;;;;;2106290;28;20042;-64
2022/01/31 00:22:55;;;;;;;9.45;4.50;;;;;;;;;;2106475;28;20131;-64
2022/01/31 00:23:56;;;;;;;9.88;3.90;;;;;;;;;;2108626;28;20092;-64
2022/01/31 00:24:57;;;;;;;8.40;3.05;;;;;;;;;;2114686;28;20087;-63
2022/01/31 00:25:58;;;;;;;9.52;4.22;;;;;;;;;;2114787;28;20048;-64
2022/01/31 00:26:59;;;;;;;8.68;4.10;;;;;;;;;;2109515;28;20072;-65
2022/01/31 00:28:00;;;;;;;9.75;4.25;;;;;;;;;;2114819;28;20048;-64
2022/01/31 00:29:01;;;;;;;6.10;2.78;;;;;;;;;;2115165;28;20139;-65
2022/01/31 00:30:02;;;;;;;6.72;3.38;;;;;;;;;;2112449;28;20051;-47
2022/01/31 00:31:04;;;;;;;7.00;3.95;;;;;;;;;;2114621;28;20174;-48
2022/01/31 00:32:05;;;;;;;6.78;2.80;;;;;;;;;;2113013;28;20050;-48
2022/01/31 00:33:07;;;;;;;6.15;3.80;;;;;;;;;;2113354;28;20131;-48
2022/01/31 00:34:08;;;;;;;3.92;2.45;;;;;;;;;;2114675;28;20567;-48
2022/01/31 00:35:09;;;;;;;4.88;3.10;;;;;;;;;;2111814;28;20062;-48
2022/01/31 00:36:10;;;;;;;5.60;2.83;;;;;;;;;;2114544;28;20071;-47
2022/01/31 00:37:12;;;;;;;7.38;3.00;;;;;;;;;;2114599;28;20054;-48
2022/01/31 00:38:13;;;;;;;6.35;3.80;;;;;;;;;;2111473;28;20604;-52
2022/01/31 00:39:14;;;;;;;3.40;2.00;;;;;;;;;;2115021;28;20112;-50
2022/01/31 00:40:15;;;;;;;5.25;2.80;;;;;;;;;;2114109;28;20126;-48
2022/01/31 00:41:16;;;;;;;5.35;2.65;;;;;;;;;;2110122;28;20396;-67
2022/01/31 00:42:19;;;;;;;5.43;2.30;;;;;;;;;;2114523;28;20460;-68
2022/01/31 00:43:21;;;;;;;6.88;3.20;;;;;;;;;;2113446;28;20078;-68
2022/01/31 00:44:26;;;;;;;;;;;;;;;;;;2108075;28;20098;-48
2022/01/31 00:45:30;;;;;;;3.58;1.70;;;;;;;;;;2106537;28;19927;-68
2022/01/31 00:46:38;;;;;;;3.72;2.60;;;;;;;;;;2106225;28;20139;-67
2022/01/31 00:47:42;;;;;;;3.15;1.80;;;;;;;;;;2114806;28;20428;-67
2022/01/31 00:48:45;;;;;;;4.18;1.92;;;;;;;;;;2113438;28;20130;-69
2022/01/31 00:49:52;;;;;;;4.35;2.20;;;;;;;;;;2106619;28;20523;-68
2022/01/31 00:50:53;;;;;;;4.18;1.77;;;;;;;;;;2106323;28;20370;-70
2022/01/31 00:51:54;;;;;;;4.75;2.20;;;;;;;;;;2107085;28;20120;-68
2022/01/31 00:52:56;;;;;;;3.53;1.52;;;;;;;;;;2106111;28;20094;-68
2022/01/31 00:53:57;;;;;;;3.60;2.00;;;;;;;;;;2107876;28;20127;-70
2022/01/31 00:54:58;;;;;;;3.58;2.05;;;;;;;;;;2111687;28;20048;-68
2022/01/31 00:55:59;;;;;;;3.20;1.90;;;;;;;;;;2114210;28;20071;-67
2022/01/31 00:57:00;;;;;;;4.82;1.80;;;;;;;;;;2106708;28;20077;-68
2022/01/31 00:58:02;;;;;;;2.40;1.70;;;;;;;;;;2110508;28;20043;-68
2022/01/31 00:59:02;;;;;;;3.92;1.20;;;;;;;;;;2114851;28;20071;-69
2022/01/31 01:00:04;;;;;;;2.00;1.17;;;;;;;;;;2114939;28;20051;-68
2022/01/31 01:01:05;;;;;;;2.58;1.77;;;;;;;;;;2108155;28;20108;-68
2022/01/31 01:02:06;;;;;;;2.80;1.65;;;;;;;;;;2106171;28;20151;-68
2022/01/31 01:03:08;;;;;;;2.78;1.50;;;;;;;;;;2105467;28;20436;-48
2022/01/31 01:04:09;;;;;;;3.40;1.40;;;;;;;;;;2111743;28;20067;-48
2022/01/31 01:05:10;;;;;;;3.38;1.80;;;;;;;;;;2114420;28;20071;-46
2022/01/31 01:06:12;;;;;;;2.80;1.63;;;;;;;;;;2109905;28;20068;-48
2022/01/31 01:07:14;;;;;;;2.30;1.20;;;;;;;;;;2113224;28;20050;-48
2022/01/31 01:08:15;;;;;;;;;;;;;;;;;;2114934;28;20484;-47
2022/01/31 01:09:16;;;;;;;3.22;1.45;;;;;;;;;;2109204;28;19930;-48
2022/01/31 01:10:19;;;;;;;2.90;1.80;;;;;;;;;;2105916;28;20386;-48
2022/01/31 01:11:20;;;;;;;4.40;1.77;;;;;;;;;;2105688;28;20401;-47
2022/01/31 01:12:21;;;;;;;3.30;1.75;;;;;;;;;;2109067;28;20125;-69
2022/01/31 01:13:22;;;;;;;2.78;1.48;;;;;;;;;;2106070;28;20056;-69
2022/01/31 01:14:23;;;;;;;3.45;1.70;;;;;;;;;;2107211;28;20452;-48
2022/01/31 01:15:24;;;;;;;3.63;2.05;;;;;;;;;;2112066;28;20048;-69
2022/01/31 01:16:26;;;;;;;3.03;1.60;;;;;;;;;;2114330;28;20114;-69
2022/01/31 01:17:27;;;;;;;3.03;1.75;;;;;;;;;;2112328;28;20479;-69
2022/01/31 01:18:28;;;;;;;3.57;1.73;;;;;;;;;;2106932;28;20040;-69
2022/01/31 01:19:29;;;;;;;3.50;2.08;;;;;;;;;;2105968;28;20522;-69
2022/01/31 01:20:30;;;;;;;2.20;1.45;;;;;;;;;;2108448;28;20066;-69
2022/01/31 01:21:31;;;;;;;2.72;1.60;;;;;;;;;;2105931;28;20129;-69
2022/01/31 01:22:32;;;;;;;3.95;2.00;;;;;;;;;;2105956;28;20063;-69
2022/01/31 01:23:34;;;;;;;2.97;1.50;;;;;;;;;;2110947;28;20093;-69
2022/01/31 01:24:37;;;;;;;3.07;1.73;;;;;;;;;;2114431;28;20079;-69
2022/01/31 01:25:37;;;;;;;;;;;;;;;;;;2115666;28;20359;-48
2022/01/31 01:26:39;;;;;;;2.60;1.40;;;;;;;;;;2110747;28;19920;-47
2022/01/31 01:27:42;;;;;;;4.47;1.30;;;;;;;;;;2114366;28;20126;-46
2022/01/31 01:28:45;;;;;;;2.95;1.50;;;;;;;;;;2113315;28;20050;-68
2022/01/31 01:29:46;;;;;;;2.75;1.55;;;;;;;;;;2106788;28;20099;-68
2022/01/31 01:30:48;;;;;;;2.75;0.88;;;;;;;;;;2106048;28;20492;-68
2022/01/31 01:31:50;;;;;;;2.47;1.23;;;;;;;;;;2108552;28;20051;-48
2022/01/31 01:33:01;;;;;;;2.83;1.25;;;;;;;;;;2105996;28;20131;-48
2022/01/31 01:34:02;;;;;;;1.92;1.13;;;;;;;;;;2105944;28;20379;-47
2022/01/31 01:35:05;;;;;;;2.03;1.00;;;;;;;;;;2111340;28;20079;-48
2022/01/31 01:36:07;;;;;;;1.30;0.85;;;;;;;;;;2114281;28;20063;-47
2022/01/31 01:37:08;;;;;;;2.45;0.95;;;;;;;;;;2113311;28;20051;-46
2022/01/31 01:38:10;;;;;;;1.85;0.70;;;;;;;;;;2112069;28;20043;-52
2022/01/31 01:39:11;;;;;;;3.53;1.08;;;;;;;;;;2114250;28;20051;-46
2022/01/31 01:40:13;;;;;;;1.73;0.80;;;;;;;;;;2112657;28;20052;-47
2022/01/31 01:41:14;;;;;;;;;;;;;;;;;;2106405;28;20147;-46
2022/01/31 01:42:15;;;;;;;2.05;0.82;;;;;;;;;;2105789;28;20077;-47
2022/01/31 01:43:16;;;;;;;3.85;1.65;;;;;;;;;;2109374;28;20134;-48
2022/01/31 01:44:17;;;;;;;1.13;0.82;;;;;;;;;;2114565;28;20055;-68
2022/01/31 01:45:19;;;;;;;1.63;0.90;;;;;;;;;;2113946;28;20047;-69
2022/01/31 01:46:20;;;;;;;1.17;0.60;;;;;;;;;;2110117;28;20072;-67
2022/01/31 01:47:22;;;;;;;1.67;1.07;;;;;;;;;;2114291;28;20109;-67
2022/01/31 01:48:24;;;;;;;1.20;0.73;;;;;;;;;;2112919;28;20048;-67
2022/01/31 01:49:25;;;;;;;3.13;1.17;;;;;;;;;;2111349;28;20067;-67
2022/01/31 01:50:26;;;;;;;2.55;1.33;;;;;;;;;;2114317;28;20560;-67
2022/01/31 01:51:27;;;;;;;1.60;0.80;;;;;;;;;;2112305;28;20042;-67
2022/01/31 01:52:28;;;;;;;1.58;1.00;;;;;;;;;;2111949;28;20109;-49
2022/01/31 01:53:29;;;;;;;0.80;0.60;;;;;;;;;;2105888;28;20051;-47
2022/01/31 01:54:30;;;;;;;1.20;0.70;;;;;;;;;;2107401;28;20064;-46
2022/01/31 01:55:32;;;;;;;1.70;0.80;;;;;;;;;;2106088;28;20071;-66
2022/01/31 01:56:33;;;;;;;1.73;1.10;;;;;;;;;;2105829;28;20124;-66
2022/01/31 01:57:34;;;;;;;1.85;0.85;;;;;;;;;;2110297;28;20405;-67
2022/01/31 01:58:39;;;;;;;1.20;0.90;;;;;;;;;;2114418;28;20211;-46
2022/01/31 01:59:41;;;;;;;2.75;1.35;;;;;;;;;;2113313;28;20093;-46
2022/01/31 02:00:50;;;;;;;3.38;1.65;;;;;;;;;;2110538;28;20043;-48
2022/01/31 02:01:51;;;;;;;2.22;1.30;;;;;;;;;;2105943;28;20048;-47
2022/01/31 02:02:53;;;;;;;1.13;0.70;;;;;;;;;;2105934;28;20073;-46
2022/01/31 02:03:54;;;;;;;1.83;0.82;;;;;;;;;;2113343;28;20048;-47
2022/01/31 02:04:55;;;;;;;1.92;0.70;;;;;;;;;;2114272;28;20226;-45
2022/01/31 02:05:58;;;;;;;1.52;0.90;;;;;;;;;;2110067;28;20073;-47
2022/01/31 02:06:59;;;;;;;2.15;1.08;;;;;;;;;;2114254;28;20525;-66
2022/01/31 02:08:00;;;;;;;3.50;0.80;;;;;;;;;;2113806;28;20052;-66
2022/01/31 02:09:03;;;;;;;1.80;1.10;;;;;;;;;;2111165;28;20052;-66
2022/01/31 02:10:06;;;;;;;1.48;0.90;;;;;;;;;;2114392;28;20048;-66
2022/01/31 02:11:08;;;;;;;1.95;0.82;;;;;;;;;;2112100;28;20126;-65
2022/01/31 02:12:09;;;;;;;1.33;0.80;;;;;;;;;;2111772;28;20071;-65
2022/01/31 02:13:11;;;;;;;2.50;0.80;;;;;;;;;;2114340;28;20492;-65
2022/01/31 02:14:12;;;;;;;2.40;0.70;;;;;;;;;;2110030;28;20481;-65
2022/01/31 02:15:15;;;;;;;1.75;0.98;;;;;;;;;;2106233;28;20051;-46
2022/01/31 02:16:17;;;;;;;1.52;0.88;;;;;;;;;;2106357;28;20051;-47
2022/01/31 02:17:18;;;;;;;2.28;1.05;;;;;;;;;;2110056;28;20044;-47
2022/01/31 02:18:23;;;;;;;1.58;0.80;;;;;;;;;;2107162;28;20048;-46
2022/01/31 02:19:24;;;;;;;1.33;0.88;;;;;;;;;;2108011;28;20071;-47
2022/01/31 02:20:25;;;;;;;1.52;0.93;;;;;;;;;;2108852;28;20130;-46
2022/01/31 02:21:27;;;;;;;1.90;1.02;;;;;;;;;;2106832;28;20461;-47
2022/01/31 02:22:28;;;;;;;1.42;0.85;;;;;;;;;;2108986;28;20079;-46
2022/01/31 02:23:29;;;;;;;2.05;1.08;;;;;;;;;;2113350;28;20046;-46
2022/01/31 02:24:31;;;;;;;1.75;0.90;;;;;;;;;;2115957;28;20059;-64
2022/01/31 02:25:32;;;;;;;1.50;0.98;;;;;;;;;;2112497;28;20380;-64
2022/01/31 02:26:33;;;;;;;1.00;0.73;;;;;;;;;;2114210;28;20101;-64
2022/01/31 02:27:35;;;;;;;1.58;0.80;;;;;;;;;;2115517;28;20047;-64
2022/01/31 02:28:36;;;;;;;;;;;;;;;;;;2114295;28;20126;-64
2022/01/31 02:29:38;;;;;;;1.63;0.85;;;;;;;;;;2115795;28;20368;-64
2022/01/31 02:30:39;;;;;;;1.63;1.10;;;;;;;;;;2112345;28;20127;-64
2022/01/31 02:31:43;;;;;;;0.63;0.60;;;;;;;;;;2112799;28;20039;-64
2022/01/31 02:32:44;;;;;;;1.63;0.90;;;;;;;;;;2115505;28;20443;-64
2022/01/31 02:33:45;;;;;;;2.27;0.90;;;;;;;;;;2110931;28;20048;-64
2022/01/31 02:34:46;;;;;;;1.40;0.70;;;;;;;;;;2114392;28;20079;-46
2022/01/31 02:35:47;;;;;;;1.90;1.17;;;;;;;;;;2115522;28;20055;-46
2022/01/31 02:36:49;;;;;;;1.77;0.90;;;;;;;;;;2112331;28;20143;-46
2022/01/31 02:37:50;;;;;;;3.80;1.02;;;;;;;;;;2115845;28;20043;-47
2022/01/31 02:38:51;;;;;;;1.98;0.90;;;;;;;;;;2115519;28;20145;-46
2022/01/31 02:39:52;;;;;;;2.07;0.83;;;;;;;;;;2112474;28;20127;-46
2022/01/31 02:40:53;;;;;;;1.30;0.77;;;;;;;;;;2115577;28;20134;-62
2022/01/31 02:41:55;;;;;;;1.55;0.52;;;;;;;;;;2115617;28;20052;-63
2022/01/31 02:42:56;;;;;;;1.65;1.00;;;;;;;;;;2112328;28;20082;-63
2022/01/31 02:43:59;;;;;;;1.85;0.70;;;;;;;;;;2115483;28;20150;-64
2022/01/31 02:45:02;;;;;;;3.03;1.38;;;;;;;;;;2113874;28;20296;-46
2022/01/31 02:46:03;;;;;;;1.83;0.90;;;;;;;;;;2114115;28;20538;-64
2022/01/31 02:47:09;;;;;;;1.45;0.80;;;;;;;;;;2115449;28;20078;-64
2022/01/31 02:48:13;;;;;;;1.80;0.80;;;;;;;;;;2112096;28;20218;-63
2022/01/31 02:49:15;;;;;;;1.73;0.90;;;;;;;;;;2115310;28;20138;-64
2022/01/31 02:50:16;;;;;;;1.17;0.70;;;;;;;;;;2115072;28;20480;-63
2022/01/31 02:51:21;;;;;;;1.48;1.00;;;;;;;;;;2109076;28;20329;-63
2022/01/31 02:52:24;;;;;;;2.05;0.82;;;;;;;;;;2107299;28;20067;-63
2022/01/31 02:53:28;;;;;;;0.95;0.60;;;;;;;;;;2107414;28;20035;-63
2022/01/31 02:54:31;;;;;;;2.22;1.00;;;;;;;;;;2113573;28;20043;-63
2022/01/31 02:55:32;;;;;;;1.50;0.82;;;;;;;;;;2115313;28;20468;-62
2022/01/31 02:56:33;;;;;;;1.27;0.53;;;;;;;;;;2112581;28;20070;-62
2022/01/31 02:57:34;;;;;;;2.47;0.82;;;;;;;;;;2115153;28;20484;-62
2022/01/31 02:58:35;;;;;;;4.32;0.93;;;;;;;;;;2115338;28;20047;-62
2022/01/31 02:59:36;;;;;;;3.35;1.15;;;;;;;;;;2112193;28;20074;-62
2022/01/31 03:00:38;;;;;;;1.52;0.70;;;;;;;;;;2115372;28;20079;-62
2022/01/31 03:01:39;;;;;;;1.30;0.73;;;;;;;;;;2109050;28;20138;-62
2022/01/31 03:02:40;;;;;;;1.30;0.80;;;;;;;;;;2108319;28;20044;-44
2022/01/31 03:03:41;;;;;;;3.33;1.20;;;;;;;;;;2106774;28;20044;-46
2022/01/31 03:04:42;;;;;;;3.60;0.95;;;;;;;;;;2108720;28;20473;-46
2022/01/31 03:05:44;;;;;;;1.77;1.00;;;;;;;;;;2113404;28;20055;-44
2022/01/31 03:06:49;;;;;;;1.35;0.75;;;;;;;;;;2115195;28;20124;-45
2022/01/31 03:07:50;;;;;;;2.33;1.10;;;;;;;;;;2114628;28;20071;-45
2022/01/31 03:08:51;;;;;;;1.25;0.65;;;;;;;;;;2107158;28;20255;-45
2022/01/31 03:09:53;;;;;;;3.20;1.87;;;;;;;;;;2106813;28;20100;-44
2022/01/31 03:10:54;;;;;;;2.50;0.68;;;;;;;;;;2110561;28;20075;-45
2022/01/31 03:11:56;;;;;;;3.03;0.90;;;;;;;;;;2115312;28;20174;-44
2022/01/31 03:12:57;;;;;;;2.72;0.95;;;;;;;;;;2115206;28;20051;-44
2022/01/31 03:13:58;;;;;;;1.00;0.70;;;;;;;;;;2108835;28;20397;-45
2022/01/31 03:14:59;;;;;;;1.38;0.80;;;;;;;;;;2106702;28;20386;-44
2022/01/31 03:16:00;;;;;;;7.20;0.80;;;;;;;;;;2110007;28;20051;-44
2022/01/31 03:17:04;;;;;;;1.10;0.65;;;;;;;;;;2107682;28;20138;-44
2022/01/31 03:18:06;;;;;;;2.60;0.85;;;;;;;;;;2107090;28;20181;-45
2022/01/31 03:19:07;;;;;;;;;;;;;;;;;;2109970;28;20083;-45
2022/01/31 03:20:09;;;;;;;1.42;0.80;;;;;;;;;;2114067;28;19926;-44
2022/01/31 03:21:10;;;;;;;1.75;0.80;;;;;;;;;;2115337;28;20075;-61
2022/01/31 03:22:12;;;;;;;2.13;0.90;;;;;;;;;;2112074;28;20114;-61
2022/01/31 03:23:13;;;;;;;1.08;0.70;;;;;;;;;;2115364;28;20082;-61
2022/01/31 03:24:15;;;;;;;1.83;0.95;;;;;;;;;;2114474;28;20049;-61
2022/01/31 03:25:16;;;;;;;1.23;0.52;;;;;;;;;;2108545;28;20048;-45
2022/01/31 03:26:17;;;;;;;1.73;0.70;;;;;;;;;;2106859;28;20223;-61
2022/01/31 03:27:19;;;;;;;2.10;1.10;;;;;;;;;;2108500;28;20076;-44
2022/01/31 03:28:20;;;;;;;1.20;0.70;;;;;;;;;;2112871;28;20089;-60
2022/01/31 03:29:21;;;;;;;0.93;0.57;;;;;;;;;;2115103;28;20484;-61
2022/01/31 03:30:22;;;;;;;1.50;1.00;;;;;;;;;;2111735;28;20044;-44
2022/01/31 03:31:24;;;;;;;1.10;0.52;;;;;;;;;;2107699;28;20180;-44
2022/01/31 03:32:25;;;;;;;2.13;1.00;;;;;;;;;;2106648;28;20576;-44
2022/01/31 03:33:26;;;;;;;1.65;1.02;;;;;;;;;;2109567;28;20067;-45
2022/01/31 03:34:27;;;;;;;1.40;0.80;;;;;;;;;;2115134;28;20104;-44
2022/01/31 03:35:28;;;;;;;1.60;0.60;;;;;;;;;;2115135;28;20392;-44
2022/01/31 03:36:29;;;;;;;2.55;0.88;;;;;;;;;;2112841;28;20537;-44
2022/01/31 03:37:30;;;;;;;1.38;0.70;;;;;;;;;;2115018;28;20079;-43
2022/01/31 03:38:32;;;;;;;2.50;0.77;;;;;;;;;;2115734;28;20101;-44
2022/01/31 03:39:32;;;;;;;;;;;;;;;;;;2111362;28;20134;-44
2022/01/31 03:40:34;;;;;;;1.80;0.60;;;;;;;;;;2115143;28;20205;-61
2022/01/31 03:41:35;;;;;;;1.13;0.68;;;;;;;;;;2113826;28;20051;-61
2022/01/31 03:42:37;;;;;;;1.25;0.60;;;;;;;;;;2112945;28;20503;-62
2022/01/31 03:43:38;;;;;;;1.55;0.85;;;;;;;;;;2115021;28;20079;-61
2022/01/31 03:44:42;;;;;;;1.00;0.60;;;;;;;;;;2110103;28;20044;-62
2022/01/31 03:45:43;;;;;;;2.55;1.08;;;;;;;;;;2114417;28;20048;-62
2022/01/31 03:46:45;;;;;;;1.00;0.70;;;;;;;;;;2115112;28;20086;-62
2022/01/31 03:47:46;;;;;;;1.00;0.65;;;;;;;;;;2112044;28;20050;-62
2022/01/31 03:48:48;;;;;;;1.70;0.80;;;;;;;;;;2114999;28;20075;-62
2022/01/31 03:49:50;;;;;;;1.33;0.52;;;;;;;;;;2115426;28;20054;-62
2022/01/31 03:50:51;;;;;;;2.13;0.90;;;;;;;;;;2111431;28;20051;-62
2022/01/31 03:51:52;;;;;;;1.10;0.60;;;;;;;;;;2114889;28;20044;-62
2022/01/31 03:52:53;;;;;;;2.30;0.80;;;;;;;;;;2111593;28;20613;-62
2022/01/31 03:53:55;;;;;;;0.98;0.68;;;;;;;;;;2112788;28;20131;-62
2022/01/31 03:54:56;;;;;;;1.33;0.77;;;;;;;;;;2114901;28;20078;-62
2022/01/31 03:55:57;;;;;;;1.45;0.70;;;;;;;;;;2111649;28;20131;-61
2022/01/31 03:56:58;;;;;;;1.30;0.60;;;;;;;;;;2114406;28;20071;-45
2022/01/31 03:57:59;;;;;;;1.27;0.50;;;;;;;;;;2115162;28;20363;-45
2022/01/31 03:59:00;;;;;;;1.63;0.77;;;;;;;;;;2112884;28;20047;-45
2022/01/31 04:00:04;;;;;;;2.03;0.80;;;;;;;;;;2115004;28;20059;-45
2022/01/31 04:01:05;;;;;;;1.80;1.00;;;;;;;;;;2112080;28;20448;-46
2022/01/31 04:02:07;;;;;;;2.05;0.80;;;;;;;;;;2112167;28;20432;-45
2022/01/31 04:03:08;;;;;;;2.22;1.27;;;;;;;;;;2115192;28;20040;-46
2022/01/31 04:04:10;;;;;;;2.92;1.13;;;;;;;;;;2113219;28;20078;-44
2022/01/31 04:05:11;;;;;;;1.65;0.82;;;;;;;;;;2107303;28;20480;-46
2022/01/31 04:06:13;;;;;;;1.65;0.80;;;;;;;;;;2106468;28;20071;-45
2022/01/31 04:07:14;;;;;;;2.47;1.00;;;;;;;;;;2109813;28;20104;-47
2022/01/31 04:08:15;;;;;;;2.77;1.03;;;;;;;;;;2114997;28;20128;-45
2022/01/31 04:09:16;;;;;;;1.40;0.57;;;;;;;;;;2114799;28;20082;-46
2022/01/31 04:10:18;;;;;;;2.22;1.00;;;;;;;;;;2109425;28;20071;-45
2022/01/31 04:11:19;;;;;;;1.45;0.65;;;;;;;;;;2114977;28;20115;-60
2022/01/31 04:12:20;;;;;;;3.55;1.05;;;;;;;;;;2113938;28;20047;-62
2022/01/31 04:13:21;;;;;;;1.92;0.85;;;;;;;;;;2111471;28;20054;-61
2022/01/31 04:14:26;;;;;;;3.05;1.15;;;;;;;;;;2115013;28;20419;-61
2022/01/31 04:15:27;;;;;;;2.00;1.00;;;;;;;;;;2112693;28;20159;-61
2022/01/31 04:16:28;;;;;;;2.08;0.80;;;;;;;;;;2107470;28;20052;-61
2022/01/31 04:17:31;;;;;;;2.10;1.23;;;;;;;;;;2106363;28;20052;-61
2022/01/31 04:18:33;;;;;;;4.30;0.70;;;;;;;;;;2108275;28;20123;-61
2022/01/31 04:19:34;;;;;;;1.42;0.80;;;;;;;;;;2114820;28;20053;-61
2022/01/31 04:20:36;;;;;;;3.13;1.10;;;;;;;;;;2114691;28;20051;-61
2022/01/31 04:21:36;;;;;;;;;;;;;;;;;;2112207;28;20071;-61
2022/01/31 04:22:45;;;;;;;1.25;0.60;;;;;;;;;;2114651;28;19920;-62
2022/01/31 04:23:46;;;;;;;2.55;1.05;;;;;;;;;;2113887;28;20075;-61
2022/01/31 04:24:53;;;;;;;1.65;1.15;;;;;;;;;;2112447;28;20485;-61
2022/01/31 04:26:02;;;;;;;2.45;1.00;;;;;;;;;;2114710;28;20045;-60
2022/01/31 04:27:06;;;;;;;1.85;0.98;;;;;;;;;;2108872;28;20688;-61
2022/01/31 04:28:16;;;;;;;2.05;1.10;;;;;;;;;;2114792;28;20066;-61
2022/01/31 04:29:18;;;;;;;3.33;1.00;;;;;;;;;;2113010;28;20130;-46
2022/01/31 04:30:19;;;;;;;1.75;0.80;;;;;;;;;;2111576;28;20071;-61
2022/01/31 04:31:37;;;;;;;1.67;0.90;;;;;;;;;;2114695;28;20051;-62
2022/01/31 04:32:39;;;;;;;1.33;0.70;;;;;;;;;;2111906;28;20075;-61
2022/01/31 04:33:40;;;;;;;3.08;1.42;;;;;;;;;;2106175;28;20532;-61
2022/01/31 04:34:41;;;;;;;2.22;1.30;;;;;;;;;;2106333;28;20071;-61
2022/01/31 04:35:42;;;;;;;2.53;1.25;;;;;;;;;;2107074;28;20132;-61
2022/01/31 04:36:44;;;;;;;1.58;0.90;;;;;;;;;;2114610;28;20196;-61
2022/01/31 04:37:45;;;;;;;4.38;0.90;;;;;;;;;;2115291;28;20048;-61
2022/01/31 04:38:47;;;;;;;1.40;1.08;;;;;;;;;;2107366;28;20094;-61
2022/01/31 04:39:48;;;;;;;1.63;0.77;;;;;;;;;;2114996;28;20079;-61
2022/01/31 04:40:50;;;;;;;3.33;0.88;;;;;;;;;;2113338;28;20499;-61
2022/01/31 04:41:51;;;;;;;1.58;0.82;;;;;;;;;;2107465;28;20044;-61
2022/01/31 04:42:52;;;;;;;1.48;0.93;;;;;;;;;;2106363;28;20052;-45
2022/01/31 04:43:57;;;;;;;2.47;0.90;;;;;;;;;;2109191;28;20449;-45
2022/01/31 04:45:00;;;;;;;2.85;0.98;;;;;;;;;;2114527;28;20048;-61
2022/01/31 04:46:04;;;;;;;1.55;0.95;;;;;;;;;;2114403;28;20050;-61
2022/01/31 04:47:06;;;;;;;2.28;1.33;;;;;;;;;;2111528;28;20055;-61
2022/01/31 04:48:07;;;;;;;4.10;1.48;;;;;;;;;;2114605;28;20528;-61
2022/01/31 04:49:08;;;;;;;2.17;1.40;;;;;;;;;;2115361;28;20059;-61
2022/01/31 04:50:09;;;;;;;3.58;1.33;;;;;;;;;;2111010;28;20096;-58
2022/01/31 04:51:11;;;;;;;1.98;0.90;;;;;;;;;;2114531;28;20096;-45
2022/01/31 04:52:11;;;;;;;2.25;1.15;;;;;;;;;;2110256;28;20552;-46
2022/01/31 04:53:13;;;;;;;2.45;1.20;;;;;;;;;;2107757;28;20052;-46
2022/01/31 04:54:14;;;;;;;3.33;1.50;;;;;;;;;;2106176;28;20177;-45
2022/01/31 04:55:16;;;;;;;4.03;1.02;;;;;;;;;;2108981;28;20459;-46
2022/01/31 04:56:17;;;;;;;2.00;0.70;;;;;;;;;;2114266;28;20551;-46
2022/01/31 04:57:18;;;;;;;3.47;1.30;;;;;;;;;;2114581;28;20071;-46
2022/01/31 04:58:21;;;;;;;1.73;0.90;;;;;;;;;;2111080;28;20504;-45
2022/01/31 04:59:23;;;;;;;3.28;1.20;;;;;;;;;;2114631;28;20047;-45
2022/01/31 05:00:25;;;;;;;2.13;1.20;;;;;;;;;;2114218;28;20122;-45
2022/01/31 05:01:27;;;;;;;;;;;;;;;;;;2110023;28;20188;-46
2022/01/31 05:02:28;;;;;;;1.00;0.68;;;;;;;;;;2114629;28;19982;-46
2022/01/31 05:03:30;;;;;;;1.67;0.88;;;;;;;;;;2113199;28;20043;-45
2022/01/31 05:04:31;;;;;;;;;;;;;;;;;;2107365;28;20044;-45
2022/01/31 05:05:32;;;;;;;2.10;0.82;;;;;;;;;;2106017;28;19927;-45
2022/01/31 05:06:36;;;;;;;2.63;1.08;;;;;;;;;;2107656;28;20040;-45
2022/01/31 05:07:37;;;;;;;1.70;1.00;;;;;;;;;;2114170;28;20172;-45
2022/01/31 05:08:39;;;;;;;1.53;0.90;;;;;;;;;;2114662;28;20047;-46
2022/01/31 05:09:40;;;;;;;3.60;1.15;;;;;;;;;;2112359;28;20516;-46
2022/01/31 05:10:44;;;;;;;3.70;1.63;;;;;;;;;;2114516;28;20122;-46
2022/01/31 05:11:46;;;;;;;3.08;1.30;;;;;;;;;;2113899;28;20514;-45
2022/01/31 05:12:47;;;;;;;2.65;1.20;;;;;;;;;;2106422;28;20401;-45
2022/01/31 05:13:48;;;;;;;3.35;1.15;;;;;;;;;;2106087;28;20082;-46
2022/01/31 05:14:49;;;;;;;2.92;1.10;;;;;;;;;;2105271;28;20075;-45
2022/01/31 05:15:53;;;;;;;4.90;1.67;;;;;;;;;;2112566;28;20050;-45
2022/01/31 05:16:55;;;;;;;2.28;1.30;;;;;;;;;;2114309;28;20043;-46
2022/01/31 05:17:56;;;;;;;2.22;1.08;;;;;;;;;;2109992;28;20409;-46
2022/01/31 05:18:57;;;;;;;2.67;1.17;;;;;;;;;;2106209;28;20071;-48
2022/01/31 05:19:58;;;;;;;2.60;1.27;;;;;;;;;;2106023;28;20086;-44
2022/01/31 05:20:59;;;;;;;2.85;1.30;;;;;;;;;;2109943;28;20456;-45
2022/01/31 05:22:00;;;;;;;2.30;0.80;;;;;;;;;;2114449;28;20101;-46
2022/01/31 05:23:04;;;;;;;5.07;1.75;;;;;;;;;;2114593;28;20138;-45
2022/01/31 05:24:06;;;;;;;2.50;1.48;;;;;;;;;;2110753;28;20075;-46
2022/01/31 05:25:08;;;;;;;2.50;1.02;;;;;;;;;;2114263;28;20572;-45
2022/01/31 05:26:10;;;;;;;2.25;1.20;;;;;;;;;;2110444;28;20523;-45
2022/01/31 05:27:11;;;;;;;4.40;1.30;;;;;;;;;;2112906;28;20048;-60
2022/01/31 05:28:12;;;;;;;4.07;1.20;;;;;;;;;;2114300;28;20066;-60
2022/01/31 05:29:13;;;;;;;2.17;1.20;;;;;;;;;;2112225;28;20122;-60
2022/01/31 05:30:21;;;;;;;1.83;1.00;;;;;;;;;;2114629;28;20058;-45
2022/01/31 05:31:22;;;;;;;1.88;1.05;;;;;;;;;;2114246;28;20051;-46
2022/01/31 05:32:23;;;;;;;4.40;1.50;;;;;;;;;;2112200;28;20476;-45
2022/01/31 05:33:25;;;;;;;2.15;0.80;;;;;;;;;;2114687;28;20048;-60
2022/01/31 05:34:26;;;;;;;1.98;1.00;;;;;;;;;;2115285;28;20183;-45
2022/01/31 05:35:27;;;;;;;4.05;1.48;;;;;;;;;;2110146;28;20408;-45
2022/01/31 05:36:28;;;;;;;4.18;1.38;;;;;;;;;;2114135;28;20142;-46
2022/01/31 05:37:29;;;;;;;1.60;0.85;;;;;;;;;;2111621;28;20122;-45
2022/01/31 05:38:34;;;;;;;1.60;0.93;;;;;;;;;;2106757;28;20432;-46
2022/01/31 05:39:35;;;;;;;2.97;0.85;;;;;;;;;;2105764;28;20560;-46
2022/01/31 05:40:36;;;;;;;2.20;1.10;;;;;;;;;;2108671;28;20052;-45
2022/01/31 05:41:38;;;;;;;2.65;1.08;;;;;;;;;;2113788;28;20052;-46
2022/01/31 05:42:39;;;;;;;2.05;0.93;;;;;;;;;;2114301;28;20075;-45
2022/01/31 05:43:40;;;;;;;2.17;1.30;;;;;;;;;;2111169;28;20094;-45
2022/01/31 05:44:43;;;;;;;1.83;1.10;;;;;;;;;;2114355;28;20047;-46
2022/01/31 05:45:44;;;;;;;2.60;1.25;;;;;;;;;;2114563;28;20067;-47
2022/01/31 05:46:45;;;;;;;2.33;1.00;;;;;;;;;;2110597;28;20039;-44
2022/01/31 05:47:46;;;;;;;2.53;1.20;;;;;;;;;;2114449;28;20492;-60
2022/01/31 05:48:47;;;;;;;2.22;1.20;;;;;;;;;;2112071;28;20086;-60
2022/01/31 05:49:49;;;;;;;2.33;1.13;;;;;;;;;;2111746;28;20047;-60
2022/01/31 05:50:50;;;;;;;2.13;1.13;;;;;;;;;;2114101;28;20132;-60
2022/01/31 05:51:53;;;;;;;1.38;0.90;;;;;;;;;;2111360;28;20477;-60
2022/01/31 05:52:54;;;;;;;2.90;1.27;;;;;;;;;;2105636;28;20493;-59
2022/01/31 05:53:55;;;;;;;2.58;1.10;;;;;;;;;;2105927;28;20055;-60
2022/01/31 05:54:56;;;;;;;3.10;1.05;;;;;;;;;;2109545;28;20092;-60
2022/01/31 05:55:57;;;;;;;2.78;0.88;;;;;;;;;;2114201;28;20521;-60
2022/01/31 05:56:59;;;;;;;1.77;1.00;;;;;;;;;;2113978;28;20067;-46
2022/01/31 05:58:00;;;;;;;3.30;0.95;;;;;;;;;;2108041;28;20108;-45
2022/01/31 05:59:01;;;;;;;2.42;1.10;;;;;;;;;;2105824;28;20181;-46
2022/01/31 06:00:03;;;;;;;1.48;0.80;;;;;;;;;;2108514;28;20443;-45
2022/01/31 06:01:06;;;;;;;3.25;1.23;;;;;;;;;;2106671;28;20130;-60
2022/01/31 06:02:07;;;;;;;1.85;0.73;;;;;;;;;;2105676;28;20131;-60
2022/01/31 06:03:08;;;;;;;3.93;1.30;;;;;;;;;;2106977;28;20404;-60
2022/01/31 06:04:09;;;;;;;4.47;1.05;;;;;;;;;;2112768;28;20280;-60
2022/01/31 06:05:10;;;;;;;1.83;0.95;;;;;;;;;;2114250;28;20515;-60
2022/01/31 06:06:12;;;;;;;3.75;1.05;;;;;;;;;;2111038;28;20409;-45
2022/01/31 06:07:14;;;;;;;1.40;0.97;;;;;;;;;;2114255;28;20047;-45
2022/01/31 06:08:15;;;;;;;;;;;;;;;;;;2114578;28;20075;-45
2022/01/31 06:09:16;;;;;;;1.90;0.90;;;;;;;;;;2109407;28;19927;-45
2022/01/31 06:10:17;;;;;;;4.95;0.93;;;;;;;;;;2114331;28;20547;-45
2022/01/31 06:11:18;;;;;;;3.92;1.50;;;;;;;;;;2114584;28;20054;-45